Time;durP1;ratioP1;P1;durP2;ratioP2;P2;SDS_P1;SDS_P2;PMS_P1;PMS_P2;Temp;Humidity;BMP_temperature;BMP_pressure;BME280_temperature;BME280_humidity;BME280_pressure;Samples;Min_cycle;Max_cycle;Signal;HPM_P1;HPM_P2
2022/04/20 00:02:03;;;;;;;7.43;2.10;;;7.90;99.90;;;;;;5024123;28;23051;-60
2022/04/20 00:04:30;;;;;;;4.97;2.47;;;7.90;99.90;;;;;;5025454;28;20213;-60
2022/04/20 00:06:58;;;;;;;4.20;2.37;;;7.90;99.90;;;;;;5039463;28;21111;-60
2022/04/20 00:09:26;;;;;;;5.17;2.07;;;7.90;99.90;;;;;;5030095;28;20209;-61
2022/04/20 00:11:52;;;;;;;3.67;1.93;;;7.90;99.90;;;;;;5021676;28;20197;-61
2022/04/20 00:14:19;;;;;;;2.10;1.80;;;7.80;99.90;;;;;;5043194;28;20201;-60
2022/04/20 00:16:46;;;;;;;5.83;2.37;;;7.50;99.90;;;;;;5029512;28;20741;-60
2022/04/20 00:19:13;;;;;;;4.27;2.30;;;7.50;99.90;;;;;;5025069;28;20291;-60
2022/04/20 00:21:40;;;;;;;3.77;2.30;;;7.40;99.90;;;;;;5042173;28;20205;-60
2022/04/20 00:24:08;;;;;;;5.60;2.77;;;7.30;99.90;;;;;;5044357;28;20216;-60
2022/04/20 00:26:35;;;;;;;3.37;2.80;;;7.20;99.90;;;;;;5011460;28;20219;-60
2022/04/20 00:29:02;;;;;;;5.63;2.37;;;7.10;99.90;;;;;;5039989;28;20196;-61
2022/04/20 00:31:29;;;;;;;5.47;2.27;;;7.00;99.90;;;;;;5028564;28;20211;-60
2022/04/20 00:33:56;;;;;;;2.80;2.20;;;6.90;99.90;;;;;;5025727;28;20213;-60
2022/04/20 00:36:23;;;;;;;2.90;1.97;;;6.90;99.90;;;;;;5039767;28;20201;-61
2022/04/20 00:38:50;;;;;;;3.53;1.83;;;6.90;99.90;;;;;;5042748;28;20197;-60
2022/04/20 00:41:19;;;;;;;3.87;2.37;;;6.80;99.90;;;;;;5032186;28;20199;-61
2022/04/20 00:43:46;;;;;;;4.17;2.00;;;6.70;99.90;;;;;;5017426;28;20287;-61
2022/04/20 00:46:14;;;;;;;3.07;2.10;;;6.60;99.90;;;;;;5031168;28;20210;-61
2022/04/20 00:48:42;;;;;;;3.37;1.90;;;6.60;99.90;;;;;;5042862;28;20206;-60
2022/04/20 00:51:09;;;;;;;3.93;2.27;;;6.50;99.90;;;;;;5029449;28;20840;-60
2022/04/20 00:53:36;;;;;;;4.10;2.37;;;6.50;99.90;;;;;;5029738;28;20200;-60
2022/04/20 00:56:04;;;;;;;5.03;2.30;;;6.50;99.90;;;;;;5042868;28;20207;-60
2022/04/20 00:58:32;;;;;;;3.43;2.20;;;6.50;99.90;;;;;;5024333;28;20893;-60
2022/04/20 01:00:59;;;;;;;3.70;2.23;;;6.50;99.90;;;;;;5038730;28;20295;-60
2022/04/20 01:03:26;;;;;;;4.57;2.03;;;6.50;99.90;;;;;;5049611;28;20200;-60
2022/04/20 01:05:53;;;;;;;2.37;1.97;;;6.50;99.90;;;;;;5020836;28;20206;-60
2022/04/20 01:08:20;;;;;;;8.70;2.60;;;6.60;99.90;;;;;;5051255;28;20201;-60
2022/04/20 01:10:47;;;;;;;3.80;2.10;;;6.50;99.90;;;;;;5056163;28;20524;-58
2022/04/20 01:13:14;;;;;;;2.93;2.30;;;6.60;99.90;;;;;;5047208;28;20262;-61
2022/04/20 01:15:43;;;;;;;2.70;2.20;;;6.60;99.90;;;;;;5061237;28;20319;-60
2022/04/20 01:18:15;;;;;;;2.50;2.03;;;6.70;99.90;;;;;;5029536;28;20220;-60
2022/04/20 01:20:43;;;;;;;4.07;2.27;;;6.70;99.90;;;;;;5046785;28;20260;-60
2022/04/20 01:23:11;;;;;;;3.80;2.30;;;6.60;99.90;;;;;;5032227;28;20215;-60
2022/04/20 01:25:38;;;;;;;2.67;2.07;;;6.50;99.90;;;;;;5044529;28;20197;-61
2022/04/20 01:28:05;;;;;;;2.73;2.27;;;6.40;99.90;;;;;;5047348;28;20201;-60
2022/04/20 01:30:32;;;;;;;1.83;1.73;;;6.30;99.90;;;;;;5024332;28;20208;-60
2022/04/20 01:33:00;;;;;;;4.33;2.20;;;6.30;99.90;;;;;;5037958;28;20206;-60
2022/04/20 01:35:27;;;;;;;8.10;2.23;;;6.30;99.90;;;;;;5018843;28;20216;-60
2022/04/20 01:37:55;;;;;;;4.73;2.67;;;6.40;99.90;;;;;;5030286;28;20238;-60
2022/04/20 01:40:22;;;;;;;2.57;2.00;;;6.30;99.90;;;;;;5047068;28;20206;-60
2022/04/20 01:42:49;;;;;;;3.20;2.50;;;6.30;99.90;;;;;;5032087;28;20209;-60
2022/04/20 01:45:16;;;;;;;3.27;2.23;;;6.30;99.90;;;;;;5028042;28;20716;-60
2022/04/20 01:47:43;;;;;;;2.50;2.20;;;6.30;99.90;;;;;;5023908;28;20966;-60
2022/04/20 01:50:10;;;;;;;4.57;2.60;;;6.30;99.90;;;;;;5033603;28;20251;-60
2022/04/20 01:52:35;;;;;;;3.87;2.33;;;6.40;99.90;;;;;;5021014;28;26047;-60
2022/04/20 01:55:04;;;;;;;2.80;2.33;;;6.30;99.90;;;;;;5045689;28;20205;-61
2022/04/20 01:57:31;;;;;;;4.43;2.10;;;6.30;99.90;;;;;;5038787;28;20225;-61
2022/04/20 01:59:58;;;;;;;3.93;2.57;;;6.30;99.90;;;;;;5043445;28;20303;-60
2022/04/20 02:02:38;;;;;;;5.13;2.60;;;6.30;99.90;;;;;;5003978;28;20212;-60
2022/04/20 02:05:07;;;;;;;3.33;2.33;;;6.20;99.90;;;;;;5041723;28;20197;-60
2022/04/20 02:07:34;;;;;;;4.10;2.40;;;6.10;99.90;;;;;;5012128;28;20224;-60
2022/04/20 02:10:01;;;;;;;3.07;2.43;;;6.00;99.90;;;;;;5044307;28;20200;-60
2022/04/20 02:12:30;;;;;;;5.57;2.83;;;5.90;99.90;;;;;;5037769;28;20200;-60
2022/04/20 02:14:57;;;;;;;3.77;2.90;;;5.80;99.90;;;;;;5045655;28;20678;-60
2022/04/20 02:17:24;;;;;;;4.57;2.30;;;5.80;99.90;;;;;;5014492;28;20230;-60
2022/04/20 02:19:51;;;;;;;3.57;3.03;;;6.00;99.90;;;;;;5039642;28;20205;-60
2022/04/20 02:22:18;;;;;;;9.07;2.80;;;6.00;99.90;;;;;;5038331;28;20209;-60
2022/04/20 02:24:45;;;;;;;4.27;2.60;;;6.10;99.90;;;;;;5022949;28;20224;-60
2022/04/20 02:27:13;;;;;;;3.43;2.40;;;6.00;99.90;;;;;;5040405;28;20197;-60
2022/04/20 02:29:41;;;;;;;2.83;2.50;;;6.00;99.90;;;;;;5040726;28;20206;-60
2022/04/20 02:32:09;;;;;;;3.10;2.47;;;6.00;99.90;;;;;;5019897;28;20207;-60
2022/04/20 02:34:36;;;;;;;3.07;2.73;;;6.00;99.90;;;;;;5041807;28;21106;-60
2022/04/20 02:37:04;;;;;;;3.80;2.87;;;6.00;99.90;;;;;;5038767;28;20917;-60
2022/04/20 02:39:31;;;;;;;5.23;2.57;;;5.90;99.90;;;;;;5020336;28;20213;-61
2022/04/20 02:41:59;;;;;;;3.80;2.67;;;5.90;99.90;;;;;;5040962;28;20889;-60
2022/04/20 02:44:26;;;;;;;3.97;2.77;;;5.80;99.90;;;;;;5036741;28;21224;-60
2022/04/20 02:46:55;;;;;;;4.97;2.33;;;5.80;99.90;;;;;;5041743;28;21042;-60
2022/04/20 02:49:22;;;;;;;2.77;2.43;;;5.70;99.90;;;;;;5018536;28;20252;-60
2022/04/20 02:51:49;;;;;;;2.70;2.50;;;5.70;99.90;;;;;;5040741;28;20209;-60
2022/04/20 02:54:16;;;;;;;5.27;2.83;;;5.50;99.90;;;;;;5021517;28;20251;-60
2022/04/20 02:56:43;;;;;;;3.50;2.80;;;5.40;99.90;;;;;;5029632;28;20201;-60
2022/04/20 02:59:10;;;;;;;3.00;2.63;;;5.40;99.90;;;;;;5043801;28;20225;-61
2022/04/20 03:01:37;;;;;;;4.23;2.73;;;5.50;99.90;;;;;;5045202;28;20202;-60
2022/04/20 03:04:06;;;;;;;3.23;2.57;;;5.50;99.90;;;;;;5026687;28;20222;-60
2022/04/20 03:06:33;;;;;;;5.50;3.13;;;5.60;99.90;;;;;;5043590;28;20571;-60
2022/04/20 03:09:01;;;;;;;6.00;2.70;;;5.70;99.90;;;;;;5043009;28;20201;-60
2022/04/20 03:11:28;;;;;;;4.43;2.90;;;5.70;99.90;;;;;;5020774;28;20213;-60
2022/04/20 03:13:56;;;;;;;5.37;2.70;;;5.90;99.90;;;;;;5044623;28;20318;-60
2022/04/20 03:16:24;;;;;;;14.00;2.83;;;5.90;99.90;;;;;;5037878;28;20201;-60
2022/04/20 03:18:51;;;;;;;2.90;2.53;;;6.00;99.90;;;;;;5024552;28;20607;-60
2022/04/20 03:21:19;;;;;;;5.50;2.90;;;6.00;99.90;;;;;;5040617;28;20208;-61
2022/04/20 03:23:46;;;;;;;3.40;2.67;;;5.90;99.90;;;;;;5047051;28;20236;-60
2022/04/20 03:26:14;;;;;;;3.53;2.77;;;5.90;99.90;;;;;;5020887;28;20205;-60
2022/04/20 03:28:41;;;;;;;6.20;2.93;;;5.90;99.90;;;;;;5040640;28;20217;-60
2022/04/20 03:31:08;;;;;;;4.10;2.90;;;5.90;99.90;;;;;;5043113;28;20203;-60
2022/04/20 03:33:36;;;;;;;4.80;3.37;;;5.90;99.90;;;;;;5028955;28;20953;-60
2022/04/20 03:36:05;;;;;;;5.13;3.13;;;6.00;99.90;;;;;;5047340;28;20237;-60
2022/04/20 03:38:34;;;;;;;4.93;3.10;;;5.90;99.90;;;;;;5041754;28;20359;-59
2022/04/20 03:41:04;;;;;;;7.10;3.50;;;5.90;99.90;;;;;;5025077;28;20208;-61
2022/04/20 03:43:31;;;;;;;4.10;3.10;;;5.90;99.90;;;;;;5042792;28;20223;-61
2022/04/20 03:45:58;;;;;;;4.80;3.23;;;5.90;99.90;;;;;;5049196;28;20284;-61
2022/04/20 03:48:26;;;;;;;6.23;3.10;;;5.80;99.90;;;;;;5029761;28;24739;-61
2022/04/20 03:50:53;;;;;;;4.83;3.40;;;5.80;99.90;;;;;;5054310;28;20215;-61
2022/04/20 03:53:19;;;;;;;4.00;3.00;;;5.70;99.90;;;;;;5050662;28;20837;-60
2022/04/20 03:55:48;;;;;;;4.60;2.90;;;5.50;99.90;;;;;;5057299;28;20202;-61
2022/04/20 03:58:15;;;;;;;3.73;2.73;;;5.30;99.90;;;;;;5052884;28;20201;-62
2022/04/20 04:00:42;;;;;;;4.97;3.10;;;5.20;99.90;;;;;;5062948;28;21310;-60
2022/04/20 04:03:09;;;;;;;13.10;3.73;;;5.20;99.90;;;;;;5053253;28;20734;-61
2022/04/20 04:05:36;;;;;;;5.60;3.07;;;5.10;99.90;;;;;;5027221;28;20205;-60
2022/04/20 04:08:03;;;;;;;6.93;3.27;;;5.00;99.90;;;;;;5046599;28;20298;-60
2022/04/20 04:10:31;;;;;;;6.57;3.40;;;5.00;99.90;;;;;;5054232;28;20555;-60
2022/04/20 04:13:00;;;;;;;5.87;3.53;;;4.90;99.90;;;;;;5043714;28;20208;-60
2022/04/20 04:15:28;;;;;;;4.00;3.13;;;4.90;99.90;;;;;;5046280;28;20213;-60
2022/04/20 04:17:58;;;;;;;5.47;2.90;;;4.90;99.90;;;;;;5049049;28;20748;-61
2022/04/20 04:20:26;;;;;;;5.10;3.07;;;4.80;99.90;;;;;;5020865;28;20230;-60
2022/04/20 04:22:53;;;;;;;5.07;3.10;;;4.80;99.90;;;;;;5043825;28;20205;-60
2022/04/20 04:25:20;;;;;;;5.80;3.17;;;4.70;99.90;;;;;;5051975;28;20866;-60
2022/04/20 04:27:48;;;;;;;4.93;3.53;;;4.60;99.90;;;;;;5022180;28;20223;-60
2022/04/20 04:30:16;;;;;;;3.70;2.73;;;4.60;99.90;;;;;;5036904;28;20199;-60
2022/04/20 04:32:44;;;;;;;6.87;3.50;;;4.60;99.90;;;;;;5045333;28;20206;-60
2022/04/20 04:35:11;;;;;;;3.83;3.13;;;4.60;99.90;;;;;;5036711;28;20373;-60
2022/04/20 04:37:39;;;;;;;4.30;3.57;;;4.60;99.90;;;;;;5036167;28;20782;-60
2022/04/20 04:40:08;;;;;;;5.30;3.60;;;4.60;99.90;;;;;;5049067;28;20319;-60
2022/04/20 04:42:35;;;;;;;4.07;3.30;;;4.60;99.90;;;;;;5030661;28;20756;-60
2022/04/20 04:50:31;;;;;;;5.10;3.47;;;4.50;99.90;;;;;;5039404;28;20356;-60
2022/04/20 04:52:58;;;;;;;4.83;3.70;;;4.50;99.90;;;;;;5040059;28;21004;-60
2022/04/20 04:55:25;;;;;;;5.67;3.50;;;4.60;99.90;;;;;;5047898;28;20202;-60
2022/04/20 04:57:52;;;;;;;5.63;3.67;;;4.60;99.90;;;;;;5016417;28;20209;-60
2022/04/20 05:00:19;;;;;;;8.30;3.50;;;4.60;99.90;;;;;;5038842;28;20287;-61
2022/04/20 05:02:48;;;;;;;4.27;3.30;;;4.70;99.90;;;;;;5043440;28;20226;-61
2022/04/20 05:05:15;;;;;;;6.53;3.90;;;4.70;99.90;;;;;;5042430;28;20201;-60
2022/04/20 05:07:42;;;;;;;4.93;3.07;;;4.70;99.90;;;;;;5024874;28;20204;-60
2022/04/20 05:10:10;;;;;;;7.47;3.40;;;4.70;99.90;;;;;;5042129;28;20230;-60
2022/04/20 05:12:37;;;;;;;8.83;3.93;;;4.80;99.90;;;;;;5030982;28;20204;-60
2022/04/20 05:15:05;;;;;;;4.33;3.33;;;4.80;99.90;;;;;;5024354;28;20241;-60
2022/04/20 05:17:32;;;;;;;9.03;3.83;;;4.90;99.90;;;;;;5041935;28;20224;-60
2022/04/20 05:20:00;;;;;;;5.33;3.43;;;4.90;99.90;;;;;;5039425;28;20229;-60
2022/04/20 05:22:27;;;;;;;5.53;2.90;;;4.90;99.90;;;;;;5027360;28;20207;-60
2022/04/20 05:24:54;;;;;;;8.67;3.60;;;5.00;99.90;;;;;;5044709;28;20596;-60
2022/04/20 05:27:20;;;;;;;7.67;3.33;;;5.00;99.90;;;;;;5044267;28;20216;-60
2022/04/20 05:29:47;;;;;;;4.90;3.07;;;5.20;99.90;;;;;;5016172;28;20208;-60
2022/04/20 05:32:14;;;;;;;5.03;3.47;;;5.20;99.90;;;;;;5048066;28;20204;-60
2022/04/20 05:34:41;;;;;;;4.47;3.67;;;5.30;99.90;;;;;;5044299;28;20224;-60
2022/04/20 05:42:39;;;;;;;4.77;3.63;;;5.40;99.90;;;;;;5031827;28;20235;-61
2022/04/20 05:45:07;;;;;;;7.47;3.77;;;5.40;99.90;;;;;;5037059;28;20886;-61
2022/04/20 05:47:34;;;;;;;7.50;3.87;;;5.40;99.90;;;;;;5044759;28;20563;-61
2022/04/20 05:50:01;;;;;;;5.77;3.77;;;5.40;99.90;;;;;;5048256;28;20212;-61
2022/04/20 05:52:29;;;;;;;4.40;3.60;;;5.40;99.90;;;;;;5044709;28;20197;-60
2022/04/20 05:54:57;;;;;;;8.23;4.13;;;5.40;99.90;;;;;;5034236;28;20216;-60
2022/04/20 05:57:24;;;;;;;7.10;3.60;;;5.40;99.90;;;;;;5044626;28;20208;-60
2022/04/20 05:59:51;;;;;;;10.40;3.80;;;5.40;99.90;;;;;;5021338;28;21042;-61
2022/04/20 06:02:18;;;;;;;6.87;4.07;;;5.40;99.90;;;;;;5051285;28;20200;-60
2022/04/20 06:04:44;;;;;;;4.90;3.47;;;5.40;99.90;;;;;;5045421;28;20206;-60
2022/04/20 06:07:12;;;;;;;7.77;3.47;;;5.40;99.90;;;;;;5052088;28;20193;-60
2022/04/20 06:09:40;;;;;;;6.17;3.40;;;5.50;99.90;;;;;;5028565;28;20201;-60
2022/04/20 06:12:08;;;;;;;5.57;3.43;;;5.60;99.90;;;;;;5037479;28;20217;-60
2022/04/20 06:14:35;;;;;;;8.13;3.83;;;5.70;99.90;;;;;;5029829;28;20531;-61
2022/04/20 06:17:03;;;;;;;4.63;3.57;;;5.80;99.90;;;;;;5038522;28;20209;-60
2022/04/20 06:19:29;;;;;;;5.23;3.93;;;5.80;99.90;;;;;;5052088;28;20583;-60
2022/04/20 06:21:56;;;;;;;10.07;3.90;;;6.00;99.90;;;;;;5050224;28;20201;-61
2022/04/20 06:24:23;;;;;;;6.30;3.67;;;6.00;99.90;;;;;;5035987;28;20219;-61
2022/04/20 06:26:51;;;;;;;7.80;3.50;;;6.10;99.90;;;;;;5050784;28;20197;-61
2022/04/20 06:29:18;;;;;;;13.67;3.80;;;6.20;99.90;;;;;;5050063;28;20244;-61
2022/04/20 06:31:45;;;;;;;7.93;3.60;;;6.30;99.90;;;;;;5021583;28;20991;-61
2022/04/20 06:34:12;;;;;;;6.73;3.50;;;6.40;99.90;;;;;;5045676;28;20209;-61
2022/04/20 06:36:39;;;;;;;4.60;3.63;;;6.50;99.90;;;;;;5049310;28;20199;-60
2022/04/20 06:39:06;;;;;;;5.87;3.73;;;6.70;99.90;;;;;;5046055;28;20761;-60
2022/04/20 06:41:33;;;;;;;5.73;3.23;;;6.80;99.90;;;;;;5030112;28;20227;-60
2022/04/20 06:44:01;;;;;;;5.93;3.93;;;7.00;99.90;;;;;;5057667;28;20754;-60
2022/04/20 06:46:29;;;;;;;4.70;3.30;;;7.10;99.90;;;;;;5053385;28;20624;-60
2022/04/20 06:48:56;;;;;;;5.67;3.33;;;7.10;99.90;;;;;;5032388;28;20221;-61
2022/04/20 06:51:23;;;;;;;8.90;3.83;;;7.20;99.90;;;;;;5046398;28;20203;-61
2022/04/20 06:59:20;;;;;;;4.77;3.10;;;7.50;99.90;;;;;;5048710;28;20918;-61
2022/04/20 07:01:47;;;;;;;5.20;3.20;;;7.60;99.90;;;;;;5046113;28;20796;-61
2022/04/20 07:04:14;;;;;;;3.40;3.03;;;7.70;99.90;;;;;;5036425;28;20212;-60
2022/04/20 07:06:41;;;;;;;3.80;3.10;;;7.80;99.90;;;;;;5050107;28;20197;-61
2022/04/20 07:09:08;;;;;;;4.93;2.90;;;7.90;99.90;;;;;;5056610;28;20200;-60
2022/04/20 07:11:35;;;;;;;4.73;3.40;;;7.90;99.90;;;;;;5033850;28;20215;-61
2022/04/20 07:14:02;;;;;;;7.53;2.93;;;8.10;99.90;;;;;;5050429;28;20242;-60
2022/04/20 07:16:30;;;;;;;7.43;3.27;;;8.10;99.90;;;;;;5048444;28;20280;-60
2022/04/20 07:18:57;;;;;;;4.07;3.00;;;8.10;99.90;;;;;;5029914;28;20259;-60
2022/04/20 07:21:24;;;;;;;11.47;3.20;;;8.20;99.90;;;;;;5051505;28;20899;-60
2022/04/20 07:23:51;;;;;;;5.63;2.70;;;8.30;99.90;;;;;;5044399;28;20256;-61
2022/04/20 07:26:17;;;;;;;4.40;3.07;;;8.40;99.90;;;;;;5033341;28;20296;-61
2022/04/20 07:28:44;;;;;;;3.90;2.87;;;8.50;99.90;;;;;;5046429;28;20208;-60
2022/04/20 07:31:11;;;;;;;6.20;3.07;;;8.50;99.90;;;;;;5046218;28;20227;-60
2022/04/20 07:33:40;;;;;;;6.60;3.43;;;8.70;99.90;;;;;;5034561;28;20203;-61
2022/04/20 07:36:07;;;;;;;3.77;2.60;;;8.80;99.90;;;;;;5050042;28;20292;-61
2022/04/20 07:38:34;;;;;;;5.43;2.40;;;8.90;99.90;;;;;;5047992;28;20818;-60
2022/04/20 07:41:01;;;;;;;4.10;2.50;;;9.00;99.90;;;;;;5026605;28;20733;-61
2022/04/20 07:43:28;;;;;;;5.13;2.67;;;9.10;99.90;;;;;;5038405;28;20271;-62
2022/04/20 07:45:55;;;;;;;13.67;2.97;;;9.10;99.90;;;;;;5043231;28;20699;-61
2022/04/20 07:48:22;;;;;;;6.47;2.57;;;9.20;99.90;;;;;;5045293;28;20196;-60
2022/04/20 07:50:50;;;;;;;2.87;2.43;;;9.30;99.90;;;;;;5021144;28;20217;-60
2022/04/20 07:53:17;;;;;;;3.83;2.30;;;9.40;99.90;;;;;;5044700;28;20207;-61
2022/04/20 07:55:46;;;;;;;6.57;2.67;;;9.50;99.90;;;;;;5040613;28;20746;-61
2022/04/20 07:58:14;;;;;;;4.73;2.60;;;9.50;99.90;;;;;;5031392;28;20201;-60
2022/04/20 08:00:41;;;;;;;6.30;2.37;;;9.60;99.90;;;;;;5041769;28;20722;-60
2022/04/20 08:03:10;;;;;;;3.47;2.50;;;9.60;99.90;;;;;;5046331;28;20220;-60
2022/04/20 08:05:37;;;;;;;4.03;2.57;;;9.70;99.90;;;;;;5023547;28;20202;-61
2022/04/20 08:08:06;;;;;;;3.27;2.50;;;9.70;99.90;;;;;;5044072;28;20208;-61
2022/04/20 08:10:33;;;;;;;4.23;2.57;;;9.70;99.90;;;;;;5043949;28;20192;-61
2022/04/20 08:14:09;;;;;;;5.90;2.47;;;9.70;99.90;;;;;;5024051;28;20261;-61
2022/04/20 08:15:47;;;;;;;7.03;2.77;;;9.80;99.90;;;;;;5044249;28;21052;-61
2022/04/20 08:18:14;;;;;;;3.03;2.30;;;9.80;99.90;;;;;;5045340;28;20197;-60
2022/04/20 08:20:41;;;;;;;8.33;2.40;;;10.00;99.90;;;;;;5023894;28;20230;-61
2022/04/20 08:23:09;;;;;;;5.77;2.37;;;10.10;99.90;;;;;;5051929;28;20201;-61
2022/04/20 08:25:36;;;;;;;3.20;2.30;;;10.10;99.90;;;;;;5045432;28;20196;-60
2022/04/20 08:28:03;;;;;;;6.00;2.20;;;10.30;99.90;;;;;;5029682;28;20208;-61
2022/04/20 08:30:30;;;;;;;7.43;2.60;;;10.30;99.90;;;;;;5050625;28;20684;-61
2022/04/20 08:32:57;;;;;;;5.13;2.33;;;10.40;99.90;;;;;;5048175;28;20199;-60
2022/04/20 08:35:24;;;;;;;2.67;2.03;;;10.60;99.90;;;;;;5051261;28;20227;-60
2022/04/20 08:37:51;;;;;;;3.13;2.20;;;10.60;99.90;;;;;;5030546;28;20593;-61
2022/04/20 08:40:19;;;;;;;3.50;2.70;;;10.70;99.90;;;;;;5053505;28;20223;-61
2022/04/20 08:42:50;;;;;;;6.10;2.67;;;10.80;99.90;;;;;;5030999;28;21025;-61
2022/04/20 08:45:18;;;;;;;3.83;2.40;;;10.90;99.90;;;;;;5052572;28;20193;-61
2022/04/20 08:47:45;;;;;;;4.23;2.57;;;10.80;99.90;;;;;;5044578;28;20201;-61
2022/04/20 08:50:12;;;;;;;6.60;2.40;;;10.90;99.90;;;;;;5047018;28;20208;-61
2022/04/20 08:52:39;;;;;;;7.70;2.33;;;11.00;99.90;;;;;;5031258;28;20205;-61
2022/04/20 08:55:08;;;;;;;3.90;2.42;;;11.00;99.90;;;;;;5050645;28;20224;-61
2022/04/20 08:57:39;;;;;;;4.23;2.40;;;11.10;99.90;;;;;;5036085;28;20209;-62
2022/04/20 09:00:09;;;;;;;3.13;2.43;;;11.10;99.90;;;;;;5048785;28;20723;-61
2022/04/20 09:02:36;;;;;;;3.33;2.25;;;11.20;99.90;;;;;;5047598;28;20558;-61
2022/04/20 09:05:04;;;;;;;2.67;2.20;;;11.10;99.90;;;;;;5051132;28;20202;-62
2022/04/20 09:07:32;;;;;;;6.40;2.67;;;11.10;99.90;;;;;;5026012;28;20200;-61
2022/04/20 09:10:00;;;;;;;7.22;2.08;;;11.20;99.90;;;;;;5047668;28;20205;-61
2022/04/20 09:12:28;;;;;;;4.13;2.47;;;11.40;99.90;;;;;;5046270;28;20307;-62
2022/04/20 09:14:59;;;;;;;5.15;2.30;;;11.40;99.90;;;;;;5033594;28;20213;-61
2022/04/20 09:17:26;;;;;;;6.03;2.90;;;11.60;99.90;;;;;;5054221;28;20250;-61
2022/04/20 09:19:55;;;;;;;4.65;2.45;;;11.70;99.90;;;;;;5051064;28;20640;-61
2022/04/20 09:22:24;;;;;;;2.72;2.10;;;11.70;99.90;;;;;;5037651;28;20263;-62
2022/04/20 09:25:08;;;;;;;2.70;2.20;;;11.70;99.90;;;;;;5049542;28;20205;-61
2022/04/20 09:27:36;;;;;;;5.95;2.10;;;11.90;99.90;;;;;;5068520;28;20204;-61
2022/04/20 09:30:09;;;;;;;5.07;2.50;;;12.00;99.90;;;;;;5031624;28;20237;-61
2022/04/20 09:32:38;;;;;;;6.85;2.92;;;12.00;99.90;;;;;;5049751;28;20211;-61
2022/04/20 09:35:07;;;;;;;3.20;2.10;;;12.00;99.90;;;;;;5053878;28;20678;-61
2022/04/20 09:37:36;;;;;;;4.13;2.30;;;12.10;99.90;;;;;;5023350;28;20209;-60
2022/04/20 09:40:05;;;;;;;3.40;2.15;;;12.20;99.90;;;;;;5045237;28;20262;-61
2022/04/20 09:42:34;;;;;;;4.57;2.20;;;12.30;99.90;;;;;;5046784;28;20258;-61
2022/04/20 09:45:02;;;;;;;4.32;2.00;;;12.40;99.90;;;;;;5032684;28;20201;-61
2022/04/20 09:50:22;;;;;;;2.42;1.95;;;12.40;99.90;;;;;;5047225;28;20345;-61
2022/04/20 09:52:50;;;;;;;2.60;2.10;;;12.60;99.90;;;;;;5025002;28;20795;-61
2022/04/20 09:55:27;;;;;;;2.22;2.03;;;12.50;99.90;;;;;;5045729;28;20204;-61
2022/04/20 09:58:10;;;;;;;4.35;2.28;;;12.50;99.90;;;;;;5045151;28;20207;-61
2022/04/20 10:00:40;;;;;;;4.80;2.33;;;12.40;99.90;;;;;;5024865;28;20726;-61
2022/04/20 10:03:09;;;;;;;5.43;2.35;;;12.50;99.90;;;;;;5048463;28;20208;-61
2022/04/20 10:05:37;;;;;;;2.58;1.95;;;12.60;99.90;;;;;;5051663;28;20258;-60
2022/04/20 10:08:05;;;;;;;3.88;2.00;;;12.70;99.90;;;;;;5049178;28;20692;-61
2022/04/20 10:10:33;;;;;;;4.28;1.95;;;12.80;99.90;;;;;;5027064;28;20201;-61
2022/04/20 10:13:03;;;;;;;2.58;2.08;;;12.90;99.90;;;;;;5048889;28;20611;-62
2022/04/20 10:18:20;;;;;;;2.90;1.90;;;13.00;99.90;;;;;;5044558;28;20216;-61
2022/04/20 10:20:52;;;;;;;2.50;2.08;;;13.00;99.90;;;;;;5051420;28;20224;-61
2022/04/20 10:23:21;;;;;;;4.40;1.95;;;13.10;99.90;;;;;;5049057;28;20287;-61
2022/04/20 10:25:50;;;;;;;3.03;2.03;;;13.10;99.90;;;;;;5034438;28;20216;-61
2022/04/20 10:28:24;;;;;;;4.93;2.28;;;13.10;99.90;;;;;;5042291;28;20196;-62
2022/04/20 10:31:11;;;;;;;2.97;2.35;;;13.10;99.90;;;;;;5021322;28;20374;-61
2022/04/20 10:33:42;;;;;;;5.03;2.33;;;13.20;99.90;;;;;;5045096;28;20234;-62
2022/04/20 10:36:11;;;;;;;2.38;2.10;;;13.20;99.90;;;;;;5052320;28;20615;-62
2022/04/20 10:38:39;;;;;;;4.30;2.17;;;13.30;99.90;;;;;;5045597;28;20228;-61
2022/04/20 10:41:11;;;;;;;3.97;2.40;;;13.30;99.90;;;;;;5029268;28;20232;-61
2022/04/20 10:43:42;;;;;;;3.97;2.10;;;13.30;99.90;;;;;;5040502;28;20351;-61
2022/04/20 10:46:19;;;;;;;2.65;2.03;;;13.20;99.90;;;;;;5029208;28;20251;-62
2022/04/20 10:48:49;;;;;;;5.30;2.10;;;13.20;99.90;;;;;;5047820;28;20229;-61
2022/04/20 10:51:17;;;;;;;3.72;2.13;;;13.30;99.90;;;;;;5051185;28;20680;-62
2022/04/20 10:53:46;;;;;;;2.35;2.08;;;13.40;99.90;;;;;;5050631;28;20206;-61
2022/04/20 10:56:13;;;;;;;2.80;2.10;;;13.40;99.90;;;;;;5036030;28;20240;-61
2022/04/20 10:58:52;;;;;;;4.45;2.13;;;13.40;99.90;;;;;;5048607;28;20197;-61
2022/04/20 11:01:19;;;;;;;2.60;1.85;;;13.50;99.90;;;;;;5049997;28;20866;-62
2022/04/20 11:04:06;;;;;;;7.63;2.20;;;13.60;99.90;;;;;;5034956;28;20273;-61
2022/04/20 11:07:12;;;;;;;5.00;1.90;;;13.60;99.90;;;;;;5050271;28;20232;-62
2022/04/20 11:10:00;;;;;;;5.32;2.15;;;13.70;99.90;;;;;;5054966;28;20193;-62
2022/04/20 11:18:42;;;;;;;3.25;2.50;;;13.80;99.90;;;;;;5032078;28;20219;-62
2022/04/20 11:21:19;;;;;;;5.55;2.50;;;13.80;99.90;;;;;;5051488;28;20228;-61
2022/04/20 11:24:07;;;;;;;3.97;2.05;;;13.80;99.90;;;;;;5052370;28;20228;-61
2022/04/20 11:26:39;;;;;;;3.92;2.53;;;13.80;99.90;;;;;;5022478;28;20236;-61
2022/04/20 11:29:11;;;;;;;2.17;1.55;;;13.90;99.90;;;;;;5039763;28;20204;-61
2022/04/20 11:31:40;;;;;;;3.28;1.95;;;14.10;99.90;;;;;;5043827;28;20201;-62
2022/04/20 11:34:08;;;;;;;2.20;1.50;;;14.20;99.90;;;;;;5024445;28;21751;-61
2022/04/20 11:36:40;;;;;;;5.22;1.75;;;14.10;99.90;;;;;;5044338;28;20271;-61
2022/04/20 11:39:09;;;;;;;3.40;2.15;;;14.20;99.90;;;;;;5041678;28;20216;-61
2022/04/20 11:41:36;;;;;;;5.00;2.00;;;14.30;99.90;;;;;;5023983;28;20235;-61
2022/04/20 11:44:03;;;;;;;1.75;1.52;;;14.30;99.90;;;;;;5044020;28;20288;-62
2022/04/20 11:46:34;;;;;;;6.35;1.48;;;14.20;99.90;;;;;;5044569;28;20196;-61
2022/04/20 11:49:01;;;;;;;2.53;1.50;;;14.30;99.90;;;;;;5031081;28;20200;-61
2022/04/20 11:51:31;;;;;;;1.73;1.60;;;14.30;99.90;;;;;;5046680;28;20212;-61
2022/04/20 11:53:59;;;;;;;2.40;1.95;;;14.40;99.90;;;;;;5046934;28;20304;-61
2022/04/20 11:56:36;;;;;;;5.75;1.70;;;14.40;99.90;;;;;;5026805;28;20209;-61
2022/04/20 11:59:05;;;;;;;2.67;1.70;;;14.40;99.90;;;;;;5045008;28;20765;-61
2022/04/20 12:01:33;;;;;;;1.52;1.40;;;14.50;99.90;;;;;;5028151;28;20232;-61
2022/04/20 12:04:04;;;;;;;3.05;1.88;;;14.60;99.90;;;;;;5049106;28;20200;-61
2022/04/20 12:06:31;;;;;;;2.50;1.80;;;14.70;99.90;;;;;;5042561;28;20213;-61
2022/04/20 12:08:59;;;;;;;2.45;1.85;;;14.70;99.90;;;;;;5040776;28;20203;-62
2022/04/20 12:11:26;;;;;;;1.80;1.50;;;14.70;99.90;;;;;;5052210;28;20311;-61
2022/04/20 12:13:57;;;;;;;4.90;1.83;;;14.70;99.90;;;;;;5017884;28;20277;-64
2022/04/20 12:16:24;;;;;;;5.22;1.70;;;14.70;99.90;;;;;;5039912;28;20405;-61
2022/04/20 12:18:52;;;;;;;1.83;1.70;;;14.70;99.90;;;;;;5040276;28;20225;-62
2022/04/20 12:21:43;;;;;;;1.98;1.50;;;14.70;99.90;;;;;;5022047;28;20235;-62
2022/04/20 12:24:19;;;;;;;1.45;1.27;;;14.70;99.90;;;;;;5029419;28;20204;-61
2022/04/20 12:26:47;;;;;;;3.05;1.73;;;14.80;99.90;;;;;;5043386;28;20203;-61
2022/04/20 12:29:16;;;;;;;1.60;1.50;;;14.70;99.90;;;;;;5023224;28;20231;-61
2022/04/20 12:31:44;;;;;;;2.05;1.63;;;14.70;99.90;;;;;;5041557;28;20302;-61
2022/04/20 12:34:13;;;;;;;6.35;1.73;;;14.60;99.90;;;;;;5041095;28;20201;-61
2022/04/20 12:37:15;;;;;;;1.88;1.52;;;14.70;99.90;;;;;;5021403;28;25914;-61
2022/04/20 12:39:45;;;;;;;4.22;1.92;;;14.80;99.90;;;;;;4993364;28;20344;-61
2022/04/20 12:42:13;;;;;;;3.50;1.73;;;14.80;99.90;;;;;;5022316;28;20239;-61
2022/04/20 12:44:52;;;;;;;1.95;1.75;;;14.80;99.90;;;;;;4996343;28;20228;-61
2022/04/20 12:47:36;;;;;;;2.13;1.67;;;14.90;99.90;;;;;;5024536;28;20929;-61
2022/04/20 12:50:21;;;;;;;2.53;1.27;;;14.80;99.90;;;;;;5041553;28;20223;-61
2022/04/20 12:53:07;;;;;;;3.35;1.40;;;14.90;99.90;;;;;;5003398;28;20277;-61
2022/04/20 12:55:38;;;;;;;2.90;1.90;;;14.90;99.90;;;;;;5017404;28;20225;-61
2022/04/20 13:03:44;;;;;;;2.15;1.80;;;15.00;99.90;;;;;;5030040;28;20235;-61
2022/04/20 13:06:12;;;;;;;2.78;1.95;;;15.20;99.90;;;;;;5040767;28;20219;-61
2022/04/20 13:08:40;;;;;;;8.82;2.10;;;15.20;99.90;;;;;;5013407;28;20205;-62
2022/04/20 13:11:12;;;;;;;2.65;2.03;;;15.20;99.90;;;;;;5042475;28;20211;-61
2022/04/20 13:13:40;;;;;;;3.20;2.20;;;15.30;99.90;;;;;;5023639;28;20223;-62
2022/04/20 13:16:10;;;;;;;3.85;1.85;;;15.30;99.90;;;;;;5037028;28;20204;-62
2022/04/20 13:18:38;;;;;;;1.52;1.42;;;15.20;99.90;;;;;;5018946;28;20307;-62
2022/04/20 13:21:05;;;;;;;2.53;1.70;;;15.20;99.90;;;;;;5017714;28;21255;-61
2022/04/20 13:23:33;;;;;;;6.03;2.03;;;15.10;99.90;;;;;;5000168;28;20228;-62
2022/04/20 13:28:48;;;;;;;3.15;1.90;;;15.30;99.90;;;;;;5025508;28;20224;-61
2022/04/20 13:31:16;;;;;;;6.13;2.47;;;15.20;99.90;;;;;;5036217;28;20277;-62
2022/04/20 13:33:43;;;;;;;6.57;2.05;;;15.50;99.90;;;;;;5039820;28;20228;-62
2022/04/20 13:36:10;;;;;;;2.55;1.90;;;15.40;99.90;;;;;;5027426;28;20200;-62
2022/04/20 13:38:37;;;;;;;2.08;1.83;;;15.50;99.90;;;;;;5027822;28;20567;-62